Time;durP1;ratioP1;P1;durP2;ratioP2;P2;SDS_P1;SDS_P2;PMS_P1;PMS_P2;Temp;Humidity;BMP_temperature;BMP_pressure;BME280_temperature;BME280_humidity;BME280_pressure;Samples;Min_cycle;Max_cycle;Signal;HPM_P1;HPM_P2
2021/11/08 00:02:10;;;;;;;20.42;4.53;;;8.80;79.10;;;;;;5030964;28;20061;-87
2021/11/08 00:04:37;;;;;;;13.63;3.83;;;8.80;79.10;;;;;;5030906;28;20052;-87
2021/11/08 00:07:04;;;;;;;13.60;4.28;;;8.80;79.10;;;;;;5030996;28;20056;-87
2021/11/08 00:09:32;;;;;;;14.10;3.95;;;8.80;79.10;;;;;;5031030;28;20053;-88
2021/11/08 00:12:00;;;;;;;16.15;3.60;;;8.80;79.10;;;;;;5031097;28;20057;-87
2021/11/08 00:14:28;;;;;;;14.65;4.35;;;8.80;79.10;;;;;;5030684;28;20107;-87
2021/11/08 00:22:04;;;;;;;16.30;4.22;;;8.70;79.00;;;;;;5030688;28;20049;-87
2021/11/08 00:24:32;;;;;;;16.88;3.78;;;8.80;79.00;;;;;;5030773;28;20049;-87
2021/11/08 00:27:01;;;;;;;17.33;4.20;;;8.70;79.00;;;;;;5030826;28;20053;-87
2021/11/08 00:29:28;;;;;;;12.73;3.80;;;8.70;79.00;;;;;;5030253;28;20057;-87
2021/11/08 00:31:59;;;;;;;16.10;3.75;;;8.70;79.00;;;;;;5030254;28;20118;-87
2021/11/08 00:34:26;;;;;;;19.85;3.88;;;8.80;79.00;;;;;;5029847;28;20076;-87
2021/11/08 00:36:53;;;;;;;14.65;3.88;;;8.70;79.00;;;;;;5030592;28;20042;-87
2021/11/08 00:39:20;;;;;;;15.73;4.05;;;8.70;79.00;;;;;;5030718;28;20049;-87
2021/11/08 00:41:47;;;;;;;15.98;4.13;;;8.70;78.90;;;;;;5029761;28;20049;-86
2021/11/08 00:44:14;;;;;;;13.63;3.60;;;8.70;79.00;;;;;;5030260;28;21154;-87
2021/11/08 00:46:41;;;;;;;14.45;4.20;;;8.70;78.90;;;;;;5030321;28;20041;-87
2021/11/08 00:49:10;;;;;;;17.15;4.30;;;8.70;78.90;;;;;;5030291;28;20506;-87
2021/11/08 00:51:41;;;;;;;15.60;3.83;;;8.70;78.90;;;;;;5029121;28;20498;-87
2021/11/08 00:54:11;;;;;;;13.15;3.70;;;8.70;78.90;;;;;;5030743;28;20457;-87
2021/11/08 00:56:42;;;;;;;14.90;3.75;;;8.70;78.90;;;;;;5029760;28;20045;-87
2021/11/08 00:59:09;;;;;;;17.23;3.67;;;8.70;78.90;;;;;;5030190;28;20104;-87
2021/11/08 01:01:36;;;;;;;18.00;3.42;;;8.70;78.90;;;;;;5030139;28;20068;-87
2021/11/08 01:04:03;;;;;;;14.48;3.65;;;8.70;78.90;;;;;;5030178;28;20049;-87
2021/11/08 01:06:30;;;;;;;16.30;3.70;;;8.70;78.90;;;;;;5030170;28;20046;-87
2021/11/08 01:08:57;;;;;;;16.23;3.50;;;8.70;78.90;;;;;;5029432;28;20461;-87
2021/11/08 01:11:24;;;;;;;17.50;3.85;;;8.70;78.90;;;;;;5029612;28;20053;-87
2021/11/08 01:13:51;;;;;;;15.95;4.45;;;8.60;78.90;;;;;;5029931;28;20049;-87
2021/11/08 01:16:22;;;;;;;12.82;4.13;;;8.60;78.90;;;;;;5030092;28;20111;-87
2021/11/08 01:18:52;;;;;;;14.77;4.15;;;8.70;78.90;;;;;;5030175;28;20469;-87
2021/11/08 01:21:19;;;;;;;18.48;3.92;;;8.60;78.90;;;;;;5030229;28;20045;-87
2021/11/08 01:23:46;;;;;;;16.98;3.88;;;8.60;78.90;;;;;;5029509;28;20111;-87
2021/11/08 01:26:14;;;;;;;14.38;3.58;;;8.60;78.90;;;;;;5029909;28;20508;-87
2021/11/08 01:28:47;;;;;;;13.50;3.85;;;8.60;78.90;;;;;;5029908;28;20076;-87
2021/11/08 01:31:17;;;;;;;14.80;3.55;;;8.60;78.90;;;;;;5029791;28;20395;-87
2021/11/08 01:33:49;;;;;;;17.73;4.43;;;8.60;78.90;;;;;;5014440;28;20054;-87
2021/11/08 01:36:23;;;;;;;12.63;3.60;;;8.50;78.80;;;;;;5026711;28;20042;-86
2021/11/08 01:38:53;;;;;;;12.77;3.40;;;8.60;78.90;;;;;;5029560;28;20080;-87
2021/11/08 01:41:27;;;;;;;13.77;3.28;;;8.50;78.80;;;;;;5029676;28;20049;-87
2021/11/08 01:43:58;;;;;;;16.65;3.83;;;8.50;78.80;;;;;;5028531;28;20122;-87
2021/11/08 01:46:25;;;;;;;15.88;4.07;;;8.50;78.80;;;;;;5033164;28;20564;-87
2021/11/08 01:48:52;;;;;;;12.18;3.40;;;8.50;78.80;;;;;;5033478;28;20587;-87
2021/11/08 01:51:19;;;;;;;14.57;3.55;;;8.50;78.80;;;;;;5033601;28;20045;-86
2021/11/08 01:53:48;;;;;;;13.77;4.07;;;8.40;78.70;;;;;;5032597;28;20049;-87
2021/11/08 01:56:18;;;;;;;14.85;3.58;;;8.40;78.70;;;;;;5032118;28;20490;-87
2021/11/08 01:58:45;;;;;;;13.05;3.22;;;8.40;78.70;;;;;;5032074;28;20438;-87
2021/11/08 02:01:12;;;;;;;14.75;3.45;;;8.40;78.60;;;;;;5033331;28;20045;-87
2021/11/08 02:03:39;;;;;;;10.55;3.25;;;8.40;78.60;;;;;;5031724;28;20045;-86
2021/11/08 02:06:06;;;;;;;14.73;3.60;;;8.30;78.60;;;;;;5033759;28;20042;-87
2021/11/08 02:08:37;;;;;;;11.20;3.33;;;8.30;78.50;;;;;;5032659;28;20049;-87
2021/11/08 02:11:04;;;;;;;11.23;3.35;;;8.30;78.50;;;;;;5031735;28;20395;-86
2021/11/08 02:13:31;;;;;;;12.25;3.33;;;8.20;78.50;;;;;;5032911;28;20049;-87
2021/11/08 02:15:58;;;;;;;16.02;3.25;;;8.20;78.40;;;;;;5033092;28;20080;-87
2021/11/08 02:18:25;;;;;;;10.27;3.00;;;8.20;78.50;;;;;;5033132;28;20107;-87
2021/11/08 02:20:53;;;;;;;16.80;3.35;;;8.10;78.40;;;;;;5033245;28;20057;-87
2021/11/08 02:23:23;;;;;;;14.40;3.75;;;8.10;78.40;;;;;;5032534;28;20046;-86
2021/11/08 02:25:53;;;;;;;15.05;4.03;;;8.00;78.40;;;;;;5032774;28;20123;-87
2021/11/08 02:28:22;;;;;;;15.48;3.85;;;8.00;78.40;;;;;;5032816;28;20072;-87
2021/11/08 02:30:54;;;;;;;16.25;3.60;;;8.00;78.40;;;;;;5032655;28;20057;-87
2021/11/08 02:33:22;;;;;;;14.70;3.88;;;7.90;78.40;;;;;;5032759;28;20049;-86
2021/11/08 02:35:49;;;;;;;15.23;3.75;;;7.90;78.50;;;;;;5033077;28;20053;-86
2021/11/08 02:38:25;;;;;;;9.60;3.08;;;7.90;78.40;;;;;;5032206;28;20100;-87
2021/11/08 02:40:54;;;;;;;12.90;2.92;;;7.90;78.40;;;;;;5032416;28;20057;-87
2021/11/08 02:43:24;;;;;;;12.48;3.22;;;7.80;78.40;;;;;;5032393;28;20541;-87
2021/11/08 02:46:00;;;;;;;16.33;3.83;;;7.80;78.50;;;;;;5032363;28;20472;-87
2021/11/08 02:48:27;;;;;;;11.60;3.38;;;7.70;78.50;;;;;;5032542;28;20045;-87
2021/11/08 02:51:04;;;;;;;16.63;3.65;;;7.70;78.50;;;;;;5031328;28;20083;-86
2021/11/08 02:53:32;;;;;;;14.23;3.38;;;7.60;78.50;;;;;;5032163;28;20045;-86
2021/11/08 02:56:00;;;;;;;17.92;4.30;;;7.70;78.50;;;;;;5032077;28;20046;-87
2021/11/08 02:58:28;;;;;;;12.90;3.80;;;7.60;78.50;;;;;;5031689;28;20552;-86
2021/11/08 03:00:56;;;;;;;12.70;3.60;;;7.60;78.60;;;;;;5032265;28;20045;-86
2021/11/08 03:03:32;;;;;;;10.05;3.25;;;7.50;78.60;;;;;;5032172;28;20494;-87
2021/11/08 03:06:05;;;;;;;13.27;3.78;;;7.50;78.60;;;;;;5031055;28;20053;-86
2021/11/08 03:08:32;;;;;;;12.02;3.60;;;7.50;78.60;;;;;;5030614;28;20045;-86
2021/11/08 03:11:00;;;;;;;17.67;4.40;;;7.40;78.60;;;;;;5030720;28;20072;-86
2021/11/08 03:13:27;;;;;;;12.82;3.95;;;7.40;78.70;;;;;;5031866;28;20045;-86
2021/11/08 03:16:03;;;;;;;12.45;4.05;;;7.40;78.70;;;;;;5031907;28;20049;-86
2021/11/08 03:18:39;;;;;;;15.63;4.03;;;7.40;78.70;;;;;;5031834;28;20084;-86
2021/11/08 03:21:14;;;;;;;11.40;3.40;;;7.40;78.70;;;;;;5032070;28;20057;-86
2021/11/08 03:23:43;;;;;;;18.98;4.70;;;7.30;78.70;;;;;;5031714;28;20045;-86
2021/11/08 03:26:39;;;;;;;18.58;4.22;;;7.30;78.70;;;;;;5031550;28;20053;-87
2021/11/08 03:29:07;;;;;;;12.38;3.78;;;7.30;78.70;;;;;;5031413;28;20053;-86
2021/11/08 03:31:35;;;;;;;11.45;4.00;;;7.20;78.70;;;;;;5031550;28;20053;-86
2021/11/08 03:34:02;;;;;;;13.45;3.38;;;7.20;78.80;;;;;;5031540;28;20053;-87
2021/11/08 03:36:29;;;;;;;13.88;3.55;;;7.10;78.80;;;;;;5031191;28;20052;-86
2021/11/08 03:38:57;;;;;;;14.25;3.85;;;7.10;78.80;;;;;;5031868;28;20106;-86
2021/11/08 03:41:24;;;;;;;11.57;3.65;;;7.10;78.80;;;;;;5031164;28;20538;-86
2021/11/08 03:43:51;;;;;;;15.02;4.25;;;7.00;78.80;;;;;;5031231;28;20088;-86
2021/11/08 03:46:18;;;;;;;14.43;3.63;;;7.00;78.80;;;;;;5031158;28;20053;-86
2021/11/08 03:48:44;;;;;;;13.63;3.38;;;7.00;78.80;;;;;;5031354;28;20399;-85
2021/11/08 03:51:12;;;;;;;16.08;3.28;;;7.00;78.80;;;;;;5031635;28;20060;-86
2021/11/08 03:53:40;;;;;;;14.15;4.50;;;6.90;78.80;;;;;;5031036;28;20061;-86
2021/11/08 03:56:07;;;;;;;16.17;3.90;;;6.90;78.80;;;;;;5031031;28;20045;-86
2021/11/08 03:58:35;;;;;;;13.35;3.58;;;6.90;78.80;;;;;;5030993;28;20049;-86
2021/11/08 04:01:03;;;;;;;10.68;3.67;;;6.90;78.80;;;;;;5031077;28;20115;-86
2021/11/08 04:03:30;;;;;;;12.45;4.13;;;6.90;78.90;;;;;;5030665;28;20049;-86
2021/11/08 04:05:57;;;;;;;11.63;3.80;;;6.90;78.90;;;;;;5031480;28;20137;-86
2021/11/08 04:08:25;;;;;;;14.15;3.53;;;6.80;78.90;;;;;;5029996;28;20057;-86
2021/11/08 04:10:54;;;;;;;15.73;3.70;;;6.80;78.90;;;;;;5030708;28;20060;-87
2021/11/08 04:13:28;;;;;;;14.40;3.97;;;6.80;78.90;;;;;;5030747;28;20045;-86
2021/11/08 04:15:58;;;;;;;15.95;4.28;;;6.80;78.90;;;;;;5030694;28;20045;-86
2021/11/08 04:18:26;;;;;;;12.48;3.70;;;6.70;78.90;;;;;;5030510;28;20506;-86
2021/11/08 04:20:55;;;;;;;19.50;4.63;;;6.70;78.90;;;;;;5029241;28;20406;-86
2021/11/08 04:23:24;;;;;;;16.83;3.72;;;6.70;78.90;;;;;;5030654;28;20041;-86
2021/11/08 04:25:53;;;;;;;13.68;3.60;;;6.70;78.90;;;;;;5030395;28;20060;-86
2021/11/08 04:28:21;;;;;;;14.85;4.45;;;6.70;78.90;;;;;;5030510;28;20041;-86
2021/11/08 04:30:48;;;;;;;12.50;3.38;;;6.60;78.90;;;;;;5030279;28;20061;-86
2021/11/08 04:33:21;;;;;;;13.85;3.70;;;6.60;78.90;;;;;;5030572;28;20092;-85
2021/11/08 04:36:19;;;;;;;12.13;3.67;;;6.60;78.90;;;;;;5030298;28;20053;-86
2021/11/08 04:46:47;;;;;;;14.98;3.92;;;6.50;79.00;;;;;;5030297;28;20498;-86
2021/11/08 04:55:24;;;;;;;12.93;3.70;;;6.40;79.10;;;;;;5006996;28;20077;-86
2021/11/08 04:58:17;;;;;;;11.80;3.40;;;6.40;79.10;;;;;;5007428;28;20052;-86
2021/11/08 05:28:17;;;;;;;12.93;4.03;;;6.20;79.30;;;;;;5009456;28;20049;-86
2021/11/08 05:30:45;;;;;;;15.18;4.07;;;6.20;79.30;;;;;;5017961;28;20061;-86
2021/11/08 05:33:12;;;;;;;17.70;4.60;;;6.20;79.40;;;;;;5034447;28;20091;-86
2021/11/08 05:35:39;;;;;;;15.05;4.82;;;6.20;79.40;;;;;;5033825;28;20057;-86
2021/11/08 05:38:09;;;;;;;16.35;4.30;;;6.20;79.40;;;;;;5033599;28;20434;-86
2021/11/08 05:40:37;;;;;;;16.00;4.30;;;6.20;79.50;;;;;;5033562;28;20049;-86
2021/11/08 05:43:06;;;;;;;21.90;4.70;;;6.20;79.50;;;;;;5033588;28;20584;-86
2021/11/08 05:45:35;;;;;;;14.90;4.55;;;6.20;79.50;;;;;;5033252;28;20057;-86
2021/11/08 05:48:05;;;;;;;22.00;5.20;;;6.20;79.50;;;;;;5034174;28;20132;-86
2021/11/08 05:50:34;;;;;;;17.85;4.75;;;6.20;79.50;;;;;;5033415;28;20053;-86
2021/11/08 05:53:01;;;;;;;16.73;4.18;;;6.20;79.50;;;;;;5033421;28;20045;-87
2021/11/08 05:55:43;;;;;;;14.10;4.38;;;6.10;79.50;;;;;;5033145;28;20049;-86
2021/11/08 06:50:35;;;;;;;19.17;4.85;;;5.90;79.90;;;;;;5032236;28;20045;-86
2021/11/08 06:53:08;;;;;;;16.98;5.63;;;5.90;79.90;;;;;;5032287;28;20632;-86
2021/11/08 06:55:35;;;;;;;14.25;4.82;;;5.90;79.90;;;;;;5032147;28;20045;-86
2021/11/08 06:58:04;;;;;;;19.38;4.90;;;5.90;80.00;;;;;;5031996;28;20076;-86
2021/11/08 07:00:31;;;;;;;12.80;4.60;;;5.90;80.00;;;;;;5032127;28;20056;-86
2021/11/08 07:02:58;;;;;;;18.13;5.63;;;5.90;80.00;;;;;;5032685;28;20061;-86
2021/11/08 07:05:25;;;;;;;23.60;4.90;;;5.90;80.00;;;;;;5032058;28;20049;-86
2021/11/08 07:07:52;;;;;;;18.55;4.75;;;5.90;80.00;;;;;;5031975;28;20045;-86
2021/11/08 07:10:20;;;;;;;14.43;4.60;;;5.90;80.10;;;;;;5031907;28;20421;-86
2021/11/08 07:12:49;;;;;;;16.02;4.72;;;5.80;80.10;;;;;;5031592;28;20136;-87
2021/11/08 07:15:19;;;;;;;17.33;5.00;;;5.90;80.10;;;;;;5032065;28;20074;-87
2021/11/08 07:17:47;;;;;;;12.20;4.82;;;5.90;80.10;;;;;;5031468;28;20457;-86
2021/11/08 07:20:14;;;;;;;12.90;4.28;;;5.80;80.10;;;;;;5031731;28;20054;-85
2021/11/08 07:22:41;;;;;;;14.32;5.28;;;5.80;80.10;;;;;;5031682;28;20469;-87
2021/11/08 07:25:08;;;;;;;14.18;4.90;;;5.80;80.10;;;;;;5031769;28;20465;-86
2021/11/08 07:27:35;;;;;;;14.13;5.05;;;5.80;80.10;;;;;;5031480;28;20041;-86
2021/11/08 07:30:05;;;;;;;15.02;4.90;;;5.80;80.10;;;;;;5031999;28;20514;-86
2021/11/08 07:32:32;;;;;;;15.25;5.72;;;5.80;80.00;;;;;;5031509;28;20103;-86
2021/11/08 07:35:00;;;;;;;15.77;6.15;;;5.80;80.00;;;;;;5031380;28;20075;-86
2021/11/08 07:37:27;;;;;;;14.57;5.82;;;5.80;80.00;;;;;;5031463;28;20052;-86
2021/11/08 07:39:54;;;;;;;15.18;5.90;;;5.70;80.00;;;;;;5031283;28;20091;-87
2021/11/08 07:42:21;;;;;;;16.63;6.65;;;5.80;80.00;;;;;;5031026;28;20628;-86
2021/11/08 07:44:49;;;;;;;15.65;6.65;;;5.70;80.00;;;;;;5031869;28;20426;-88
2021/11/08 07:47:16;;;;;;;17.30;6.28;;;5.70;80.00;;;;;;5031301;28;20242;-86
2021/11/08 07:49:43;;;;;;;17.02;6.00;;;5.70;80.00;;;;;;5031164;28;20045;-85
2021/11/08 07:52:10;;;;;;;15.55;6.10;;;5.70;80.00;;;;;;5031448;28;20047;-85
2021/11/08 07:54:38;;;;;;;18.77;7.57;;;5.70;80.00;;;;;;5031150;28;20053;-86
2021/11/08 07:57:06;;;;;;;17.40;6.63;;;5.70;79.90;;;;;;5031387;28;20053;-86
2021/11/08 07:59:33;;;;;;;16.08;6.03;;;5.60;80.00;;;;;;5030953;28;20056;-86
2021/11/08 08:02:02;;;;;;;18.15;7.32;;;5.70;80.00;;;;;;5030938;28;20057;-86
2021/11/08 08:04:29;;;;;;;21.83;7.30;;;5.70;80.00;;;;;;5030972;28;20045;-85
2021/11/08 08:06:57;;;;;;;18.38;6.82;;;5.60;80.00;;;;;;5031001;28;20096;-86
2021/11/08 08:09:24;;;;;;;19.25;6.00;;;5.70;80.00;;;;;;5029299;28;20476;-85
2021/11/08 08:11:51;;;;;;;20.30;6.82;;;5.60;80.00;;;;;;5027927;28;20049;-86
2021/11/08 08:14:18;;;;;;;15.32;6.40;;;5.60;80.00;;;;;;5033723;28;20057;-85
2021/11/08 08:16:45;;;;;;;19.73;6.80;;;5.70;80.10;;;;;;5032032;28;20468;-86
2021/11/08 08:19:13;;;;;;;16.35;6.95;;;5.60;80.10;;;;;;5031742;28;20041;-86
2021/11/08 08:21:40;;;;;;;17.38;6.97;;;5.60;80.10;;;;;;5028604;28;20057;-86
2021/11/08 08:24:07;;;;;;;24.83;9.48;;;5.70;80.10;;;;;;5036250;28;20050;-86
2021/11/08 08:26:37;;;;;;;25.10;11.05;;;5.60;80.10;;;;;;5031881;28;20052;-86
2021/11/08 08:29:07;;;;;;;27.30;12.45;;;5.70;80.20;;;;;;5040456;28;20106;-87
2021/11/08 08:31:36;;;;;;;17.15;9.82;;;5.70;80.20;;;;;;5041288;28;20053;-86
2021/11/08 08:34:04;;;;;;;21.15;10.23;;;5.70;80.30;;;;;;5030512;28;20502;-86
2021/11/08 08:36:32;;;;;;;25.90;10.50;;;5.70;80.30;;;;;;5030480;28;20417;-86
2021/11/08 08:39:02;;;;;;;28.67;11.90;;;5.70;80.40;;;;;;5034532;28;20100;-86
2021/11/08 08:41:29;;;;;;;28.65;11.82;;;5.70;80.40;;;;;;5032053;28;20485;-86
2021/11/08 08:43:56;;;;;;;20.10;10.50;;;5.70;80.50;;;;;;5031698;28;20045;-86
2021/11/08 08:46:23;;;;;;;20.75;10.07;;;5.80;80.60;;;;;;5032099;28;20099;-86
2021/11/08 08:48:52;;;;;;;21.98;9.02;;;5.80;80.60;;;;;;5028700;28;20046;-86
2021/11/08 08:51:20;;;;;;;15.38;8.80;;;5.80;80.70;;;;;;5033418;28;20045;-86
2021/11/08 08:53:48;;;;;;;21.83;9.35;;;5.90;80.80;;;;;;5035057;28;20045;-86
2021/11/08 08:56:20;;;;;;;19.40;9.15;;;5.90;80.90;;;;;;5031402;28;20049;-85
2021/11/08 08:58:47;;;;;;;20.40;10.32;;;5.90;80.90;;;;;;5031702;28;20498;-86
2021/11/08 09:01:14;;;;;;;24.67;10.18;;;6.00;81.00;;;;;;5031691;28;20095;-86
2021/11/08 09:03:41;;;;;;;17.67;8.73;;;6.00;81.10;;;;;;5012292;28;20049;-86
2021/11/08 09:06:08;;;;;;;25.92;9.50;;;6.00;81.20;;;;;;5046608;28;20521;-85
2021/11/08 09:08:38;;;;;;;23.27;9.63;;;6.10;81.30;;;;;;5032023;28;20042;-86
2021/11/08 09:11:05;;;;;;;20.83;8.38;;;6.10;81.30;;;;;;5031913;28;20429;-86
2021/11/08 09:13:33;;;;;;;18.75;8.27;;;6.20;81.40;;;;;;5031503;28;20045;-86
2021/11/08 09:16:00;;;;;;;19.17;8.70;;;6.20;81.40;;;;;;5029537;28;20469;-86
2021/11/08 09:18:27;;;;;;;24.35;8.57;;;6.30;81.50;;;;;;5031889;28;20534;-86
2021/11/08 09:20:54;;;;;;;19.95;7.95;;;6.40;81.60;;;;;;5033695;28;20053;-86
2021/11/08 09:23:21;;;;;;;21.88;9.18;;;6.40;81.60;;;;;;5031470;28;20046;-86
2021/11/08 09:25:48;;;;;;;20.52;8.75;;;6.50;81.70;;;;;;5031681;28;20053;-85
2021/11/08 09:28:16;;;;;;;23.25;8.73;;;6.60;81.80;;;;;;5031457;28;20044;-86
2021/11/08 09:30:44;;;;;;;23.60;8.23;;;6.70;81.80;;;;;;5023454;28;20045;-85
2021/11/08 09:33:12;;;;;;;23.38;9.05;;;6.70;81.90;;;;;;5008739;28;20092;-84
2021/11/08 10:08:03;;;;;;;27.13;7.13;;;8.40;82.00;;;;;;5896454;23;20049;-85
2021/11/08 10:10:31;;;;;;;19.92;6.25;;;8.60;81.90;;;;;;5002847;28;20105;-85
2021/11/08 10:13:27;;;;;;;20.63;6.25;;;8.90;81.80;;;;;;5008330;28;20041;-85
2021/11/08 10:16:25;;;;;;;27.60;7.00;;;9.00;81.60;;;;;;5005807;28;20050;-85
2021/11/08 10:18:56;;;;;;;28.38;6.80;;;9.30;81.40;;;;;;4995505;28;20469;-85
2021/11/08 10:21:39;;;;;;;17.00;5.95;;;9.50;81.10;;;;;;4996751;28;20417;-85
2021/11/08 10:24:10;;;;;;;28.90;6.32;;;9.70;80.90;;;;;;4998596;28;20057;-85
2021/11/08 10:26:38;;;;;;;24.80;6.60;;;9.90;80.60;;;;;;5011718;28;20520;-85
2021/11/08 10:29:09;;;;;;;25.88;6.32;;;10.00;80.40;;;;;;5003871;28;20050;-85
2021/11/08 10:31:46;;;;;;;22.58;5.93;;;10.20;80.10;;;;;;4999060;28;20066;-85
2021/11/08 10:34:15;;;;;;;25.38;5.93;;;10.40;79.70;;;;;;4998571;28;20592;-86
2021/11/08 10:36:44;;;;;;;21.40;6.03;;;10.50;79.40;;;;;;4993739;28;20050;-90
2021/11/08 10:39:12;;;;;;;25.95;6.25;;;10.70;79.00;;;;;;5009511;28;20050;-89
2021/11/08 10:41:43;;;;;;;23.45;6.45;;;10.90;78.70;;;;;;4998623;28;20050;-87
2021/11/08 10:44:22;;;;;;;20.17;6.10;;;11.00;78.30;;;;;;4998248;28;20051;-87
2021/11/08 10:47:04;;;;;;;26.30;6.68;;;11.20;78.00;;;;;;4999314;28;20061;-87
2021/11/08 10:49:43;;;;;;;22.98;6.20;;;11.30;77.80;;;;;;4996304;28;20054;-87
2021/11/08 10:52:15;;;;;;;22.20;6.22;;;11.40;77.40;;;;;;5006589;28;20108;-88
2021/11/08 10:54:50;;;;;;;23.48;6.40;;;11.50;77.10;;;;;;4994404;28;20042;-88
2021/11/08 10:57:20;;;;;;;28.23;6.65;;;11.70;76.90;;;;;;5008587;28;20111;-87
2021/11/08 10:59:50;;;;;;;27.60;7.05;;;11.70;76.60;;;;;;5008627;28;20046;-87
2021/11/08 11:02:21;;;;;;;18.10;5.10;;;11.90;76.30;;;;;;4999686;28;20057;-87
2021/11/08 11:04:56;;;;;;;23.63;6.18;;;11.90;76.00;;;;;;4999266;28;20077;-87
2021/11/08 11:07:28;;;;;;;24.10;6.18;;;11.90;75.80;;;;;;5007831;28;20041;-86
2021/11/08 11:10:11;;;;;;;22.33;5.50;;;12.00;75.60;;;;;;4994069;28;20053;-87
2021/11/08 11:12:43;;;;;;;22.13;5.90;;;12.10;75.30;;;;;;5008388;28;20046;-87
2021/11/08 11:15:14;;;;;;;20.25;5.97;;;12.10;75.20;;;;;;4993224;28;20054;-87
2021/11/08 11:17:51;;;;;;;23.75;6.53;;;12.20;75.00;;;;;;4992002;28;20614;-87
2021/11/08 11:20:29;;;;;;;23.00;5.95;;;12.20;74.80;;;;;;4993066;28;20495;-87
2021/11/08 11:23:08;;;;;;;24.98;6.47;;;12.20;74.60;;;;;;5003200;28;20108;-87
2021/11/08 11:25:38;;;;;;;23.73;5.65;;;12.20;74.40;;;;;;4997339;28;20053;-88
2021/11/08 11:28:07;;;;;;;24.42;6.22;;;12.20;74.20;;;;;;5006570;28;20450;-88
2021/11/08 11:30:42;;;;;;;20.75;6.18;;;12.10;74.10;;;;;;5008796;28;20054;-89
2021/11/08 11:33:30;;;;;;;22.90;5.68;;;12.10;73.90;;;;;;4994201;28;20061;-89
2021/11/08 11:36:04;;;;;;;16.73;5.22;;;12.00;73.80;;;;;;4996945;28;20054;-89
2021/11/08 11:38:42;;;;;;;17.73;5.38;;;11.90;73.70;;;;;;4998383;28;20051;-87
2021/11/08 11:41:17;;;;;;;18.63;5.22;;;11.90;73.70;;;;;;5001280;28;20065;-89
2021/11/08 11:43:48;;;;;;;18.38;5.13;;;11.80;73.60;;;;;;5005030;28;20560;-88
2021/11/08 11:46:20;;;;;;;21.27;5.70;;;11.70;73.60;;;;;;5007798;28;20050;-86
2021/11/08 11:48:48;;;;;;;18.17;5.22;;;11.70;73.70;;;;;;4993630;28;20101;-88
2021/11/08 11:51:27;;;;;;;17.27;4.95;;;11.60;73.70;;;;;;5007891;28;20111;-86
2021/11/08 11:53:56;;;;;;;15.55;4.32;;;11.50;73.80;;;;;;4996521;28;20058;-87
2021/11/08 11:56:26;;;;;;;19.63;4.78;;;11.50;73.80;;;;;;4996341;28;20074;-89
2021/11/08 11:58:54;;;;;;;20.73;6.20;;;11.40;73.90;;;;;;5003192;28;20058;-87
2021/11/08 12:01:24;;;;;;;17.38;5.88;;;11.40;74.00;;;;;;5007468;28;20042;-88
2021/11/08 12:03:51;;;;;;;18.02;5.10;;;11.40;74.10;;;;;;4993750;28;20042;-87
2021/11/08 12:06:26;;;;;;;18.70;4.93;;;11.30;74.30;;;;;;5009322;28;20053;-87
2021/11/08 12:08:58;;;;;;;23.05;5.70;;;11.30;74.30;;;;;;5006841;28;20065;-87
2021/11/08 12:11:31;;;;;;;14.82;4.63;;;11.20;74.50;;;;;;5004298;28;20057;-87
2021/11/08 12:14:13;;;;;;;17.65;5.35;;;11.20;74.50;;;;;;5004774;28;20050;-87
2021/11/08 12:17:01;;;;;;;13.38;4.68;;;11.20;74.60;;;;;;5004956;28;20104;-87
2021/11/08 12:19:36;;;;;;;16.70;5.07;;;11.20;74.70;;;;;;5003725;28;20510;-88
2021/11/08 12:22:19;;;;;;;18.15;4.90;;;11.20;74.80;;;;;;4995919;28;20054;-87
2021/11/08 12:25:07;;;;;;;16.73;4.68;;;11.20;74.80;;;;;;4991954;28;20449;-87
2021/11/08 12:27:40;;;;;;;19.10;4.90;;;11.20;74.90;;;;;;4991705;28;20551;-87
2021/11/08 12:30:09;;;;;;;15.27;4.18;;;11.20;74.90;;;;;;5006180;28;20133;-87
2021/11/08 12:32:45;;;;;;;18.83;5.00;;;11.20;74.90;;;;;;5008455;28;20065;-87
2021/11/08 12:35:21;;;;;;;19.10;5.13;;;11.20;75.00;;;;;;5004875;28;20050;-87
2021/11/08 12:37:49;;;;;;;22.80;5.18;;;11.20;75.00;;;;;;5001706;28;20426;-87
2021/11/08 12:40:19;;;;;;;19.52;5.15;;;11.20;75.00;;;;;;5001938;28;20050;-87
2021/11/08 12:42:51;;;;;;;21.95;5.05;;;11.10;75.00;;;;;;4997775;28;20576;-87
2021/11/08 12:45:23;;;;;;;17.15;4.20;;;11.10;75.00;;;;;;5010501;28;20528;-87
2021/11/08 12:48:06;;;;;;;14.07;4.78;;;11.10;75.10;;;;;;5007958;28;20057;-87
2021/11/08 12:50:39;;;;;;;17.15;5.18;;;11.10;75.10;;;;;;5005183;28;20057;-87
2021/11/08 12:53:30;;;;;;;19.38;4.82;;;11.10;75.20;;;;;;5001136;28;20125;-87
2021/11/08 12:56:07;;;;;;;17.02;5.32;;;11.00;75.20;;;;;;4996291;28;20426;-85
2021/11/08 12:58:38;;;;;;;16.02;4.93;;;11.00;75.30;;;;;;4996304;28;20049;-88
2021/11/08 13:01:07;;;;;;;14.32;4.55;;;11.00;75.40;;;;;;4992633;28;20493;-88
2021/11/08 13:03:40;;;;;;;17.60;4.90;;;11.00;75.40;;;;;;5007226;28;20096;-88
2021/11/08 13:06:29;;;;;;;17.00;4.43;;;11.00;75.50;;;;;;4995678;28;20512;-87
2021/11/08 13:09:19;;;;;;;12.63;4.43;;;11.00;75.50;;;;;;4995299;28;20081;-87
2021/11/08 13:11:55;;;;;;;17.20;4.65;;;10.90;75.60;;;;;;4993066;28;20051;-85
2021/11/08 13:14:27;;;;;;;16.40;4.57;;;10.90;75.60;;;;;;5005489;28;20521;-87
2021/11/08 13:17:14;;;;;;;16.35;4.85;;;11.00;75.70;;;;;;5008291;28;20049;-86
2021/11/08 13:19:54;;;;;;;15.68;4.65;;;11.00;75.70;;;;;;5006518;28;20079;-87
2021/11/08 13:22:44;;;;;;;14.70;4.57;;;11.00;75.80;;;;;;5002489;28;20089;-87
2021/11/08 13:25:27;;;;;;;15.25;4.50;;;10.90;75.70;;;;;;4994917;28;20049;-87
2021/11/08 13:28:01;;;;;;;15.65;4.38;;;10.90;75.70;;;;;;4998923;28;20526;-87
2021/11/08 13:30:48;;;;;;;13.30;4.15;;;11.00;75.80;;;;;;5006572;28;20053;-87
2021/11/08 13:33:21;;;;;;;18.48;4.68;;;10.90;75.80;;;;;;5006794;28;20726;-86
2021/11/08 13:35:54;;;;;;;13.55;4.50;;;10.90;75.80;;;;;;5004576;28;20587;-86
2021/11/08 13:38:37;;;;;;;17.00;4.18;;;10.90;75.80;;;;;;4997200;28;20053;-86
2021/11/08 13:41:06;;;;;;;17.50;4.30;;;11.00;75.80;;;;;;4999635;28;20046;-86
2021/11/08 13:43:47;;;;;;;15.70;3.95;;;11.00;75.90;;;;;;5006686;28;20453;-86
2021/11/08 13:46:21;;;;;;;17.85;3.97;;;11.00;75.90;;;;;;5010291;28;20437;-87
2021/11/08 13:48:53;;;;;;;14.18;4.32;;;11.00;75.90;;;;;;4995136;28;20136;-87
2021/11/08 13:51:32;;;;;;;14.82;4.55;;;11.10;75.90;;;;;;4996750;28;20139;-86
2021/11/08 13:54:04;;;;;;;16.48;4.18;;;11.10;75.90;;;;;;5008375;28;20050;-85
2021/11/08 13:56:43;;;;;;;17.77;4.32;;;11.10;75.90;;;;;;5006301;28;20053;-86
2021/11/08 13:59:17;;;;;;;18.60;4.47;;;11.20;75.90;;;;;;5001842;28;20050;-86
2021/11/08 14:01:46;;;;;;;17.90;4.75;;;11.20;75.80;;;;;;4998558;28;20042;-87
2021/11/08 14:04:13;;;;;;;26.80;4.45;;;11.20;75.80;;;;;;4995725;28;20038;-86
2021/11/08 14:06:42;;;;;;;25.48;4.80;;;11.20;75.70;;;;;;5010347;28;20050;-86
2021/11/08 14:09:20;;;;;;;19.50;4.55;;;11.30;75.70;;;;;;4998347;28;20058;-87
2021/11/08 14:11:50;;;;;;;20.42;4.78;;;11.30;75.60;;;;;;4993941;28;20058;-86
2021/11/08 14:14:20;;;;;;;18.60;4.47;;;11.40;75.50;;;;;;4996834;28;20062;-86
2021/11/08 14:16:50;;;;;;;18.35;5.10;;;11.40;75.50;;;;;;4995436;28;20054;-88
2021/11/08 14:19:19;;;;;;;20.83;4.38;;;11.40;75.30;;;;;;5000294;28;20042;-86
2021/11/08 14:21:50;;;;;;;23.90;4.57;;;11.40;75.20;;;;;;4994369;28;20058;-88
2021/11/08 14:24:22;;;;;;;16.38;5.03;;;11.40;75.20;;;;;;4997236;28;20050;-88
2021/11/08 14:26:55;;;;;;;20.88;4.65;;;11.40;75.10;;;;;;4997699;28;20054;-88
2021/11/08 14:29:25;;;;;;;13.23;3.80;;;11.40;75.00;;;;;;5003953;28;20050;-88
2021/11/08 14:32:07;;;;;;;16.67;4.00;;;11.40;75.00;;;;;;5006248;28;20046;-89
2021/11/08 14:34:40;;;;;;;20.65;4.68;;;11.40;75.00;;;;;;5006825;28;20111;-87
2021/11/08 14:37:19;;;;;;;20.63;4.82;;;11.40;74.90;;;;;;4996902;28;20045;-86
2021/11/08 14:39:48;;;;;;;18.38;4.75;;;11.40;74.90;;;;;;4993855;28;20046;-88
2021/11/08 14:42:18;;;;;;;22.30;5.00;;;11.40;74.90;;;;;;4996723;28;20057;-88
2021/11/08 14:44:48;;;;;;;16.27;4.65;;;11.40;74.90;;;;;;5004852;28;20080;-87
2021/11/08 14:47:30;;;;;;;15.43;4.47;;;11.30;74.90;;;;;;5005988;28;20054;-87
2021/11/08 14:50:05;;;;;;;17.98;4.47;;;11.30;74.90;;;;;;5006002;28;20108;-87
2021/11/08 14:52:47;;;;;;;20.70;4.47;;;11.30;75.00;;;;;;5002591;28;20053;-87
2021/11/08 14:55:16;;;;;;;14.50;4.00;;;11.30;75.00;;;;;;4995104;28;20050;-88
2021/11/08 14:57:45;;;;;;;11.93;4.00;;;11.30;75.10;;;;;;4990864;28;20064;-87
2021/11/08 15:00:23;;;;;;;26.17;4.70;;;11.20;75.10;;;;;;5004156;28;20057;-88
2021/11/08 15:02:52;;;;;;;14.98;4.28;;;11.20;75.20;;;;;;4997392;28;20054;-87
2021/11/08 15:05:25;;;;;;;18.42;4.35;;;11.20;75.20;;;;;;4999500;28;20058;-88
2021/11/08 15:08:05;;;;;;;17.57;4.63;;;11.20;75.20;;;;;;4997659;28;20047;-87
2021/11/08 15:10:35;;;;;;;20.02;4.53;;;11.10;75.30;;;;;;4996318;28;20057;-87
2021/11/08 15:13:05;;;;;;;17.60;4.32;;;11.20;75.30;;;;;;5008660;28;20042;-87
2021/11/08 15:15:34;;;;;;;16.52;4.57;;;11.10;75.40;;;;;;4994471;28;20050;-87